Time;durP1;ratioP1;P1;durP2;ratioP2;P2;SDS_P1;SDS_P2;PMS_P1;PMS_P2;Temp;Humidity;BMP_temperature;BMP_pressure;BME280_temperature;BME280_humidity;BME280_pressure;Samples;Min_cycle;Max_cycle;Signal;HPM_P1;HPM_P2
2022/03/18 00:01:23;;;;;;;18.23;9.10;;;;;;;2.36;88.73;103042.91;5020238;28;20210;-67
2022/03/18 00:03:52;;;;;;;13.07;7.40;;;;;;;2.36;88.09;103043.78;5016246;28;20693;-67
2022/03/18 00:06:18;;;;;;;11.63;5.80;;;;;;;2.33;87.63;103053.41;5002127;28;20215;-68
2022/03/18 00:08:47;;;;;;;10.13;6.67;;;;;;;2.24;87.40;103058.56;4992282;28;20208;-68
2022/03/18 00:11:15;;;;;;;10.40;6.20;;;;;;;2.14;87.55;103068.13;4999253;28;20211;-67
2022/03/18 00:13:42;;;;;;;10.83;6.37;;;;;;;2.02;87.46;103063.63;5013104;28;20301;-67
2022/03/18 00:16:08;;;;;;;10.27;6.83;;;;;;;1.97;86.98;103064.44;5008795;28;20226;-66
2022/03/18 00:18:35;;;;;;;13.70;7.73;;;;;;;1.91;86.86;103057.38;5005857;28;20743;-68
2022/03/18 00:21:03;;;;;;;15.67;8.23;;;;;;;1.88;87.12;103059.09;4995250;28;20212;-67
2022/03/18 00:23:30;;;;;;;10.10;6.43;;;;;;;1.86;87.60;103066.94;5007623;28;20581;-68
2022/03/18 00:25:56;;;;;;;13.77;8.03;;;;;;;1.82;86.85;103067.78;5008041;28;20742;-67
2022/03/18 00:28:22;;;;;;;14.47;8.03;;;;;;;1.77;87.17;103065.97;5007713;28;20230;-67
2022/03/18 00:30:49;;;;;;;11.17;8.37;;;;;;;1.73;87.12;103072.94;5020584;28;20207;-67
2022/03/18 00:33:16;;;;;;;12.33;7.37;;;;;;;1.69;87.39;103065.88;5002752;28;20223;-68
2022/03/18 00:35:42;;;;;;;13.50;8.00;;;;;;;1.67;87.53;103060.59;4999958;28;20720;-68
2022/03/18 00:38:10;;;;;;;15.67;7.53;;;;;;;1.66;87.02;103069.34;5006487;28;20231;-67
2022/03/18 00:40:37;;;;;;;13.67;8.53;;;;;;;1.65;87.12;103069.31;5016254;28;20272;-67
2022/03/18 00:43:04;;;;;;;14.07;7.80;;;;;;;1.64;87.51;103070.19;5012973;28;20221;-67
2022/03/18 00:45:31;;;;;;;14.10;8.23;;;;;;;1.63;87.25;103069.31;5006630;28;20231;-67
2022/03/18 00:53:26;;;;;;;13.53;7.43;;;;;;;1.58;88.01;103078.88;4997482;28;20593;-68
2022/03/18 00:55:53;;;;;;;12.03;8.07;;;;;;;1.57;87.43;103084.13;5006174;28;20230;-68
2022/03/18 00:58:19;;;;;;;19.63;9.63;;;;;;;1.55;87.91;103085.84;5006072;28;20230;-67
2022/03/18 01:00:46;;;;;;;14.27;8.87;;;;;;;1.54;87.28;103086.69;5007811;28;20206;-67
2022/03/18 01:03:15;;;;;;;14.20;9.23;;;;;;;1.53;87.53;103092.81;5011307;28;20218;-68
2022/03/18 01:05:42;;;;;;;15.37;9.20;;;;;;;1.50;87.79;103090.16;5011736;28;20230;-68
2022/03/18 01:08:08;;;;;;;14.23;9.33;;;;;;;1.49;88.20;103089.25;5020046;28;21530;-68
2022/03/18 01:10:37;;;;;;;13.70;8.47;;;;;;;1.47;88.01;103092.72;5009972;28;20218;-67
2022/03/18 01:13:04;;;;;;;14.53;9.50;;;;;;;1.45;87.55;103095.31;5010787;28;20207;-68
2022/03/18 01:15:30;;;;;;;12.63;8.60;;;;;;;1.40;87.01;103097.03;5017773;28;20245;-67
2022/03/18 01:17:57;;;;;;;10.97;7.63;;;;;;;1.35;87.61;103101.34;5010715;28;20250;-68
2022/03/18 01:20:23;;;;;;;10.07;6.67;;;;;;;1.28;86.97;103102.97;4997789;28;20237;-68
2022/03/18 01:22:50;;;;;;;13.90;8.17;;;;;;;1.20;87.25;103109.88;5010113;28;20761;-67
2022/03/18 01:25:16;;;;;;;16.23;8.30;;;;;;;1.15;86.94;103114.16;4999603;28;20235;-68
2022/03/18 01:27:45;;;;;;;10.93;7.60;;;;;;;1.12;87.47;103111.50;5000109;28;20673;-66
2022/03/18 01:30:13;;;;;;;13.40;7.57;;;;;;;1.10;87.49;103101.84;5012450;28;20207;-67
2022/03/18 01:32:40;;;;;;;14.53;7.70;;;;;;;1.06;87.32;103111.44;5021810;28;20688;-67
2022/03/18 01:35:07;;;;;;;11.10;8.53;;;;;;;1.04;87.35;103102.66;5007879;28;20238;-68
2022/03/18 01:37:34;;;;;;;14.07;7.67;;;;;;;1.00;87.00;103100.81;4999539;28;20211;-67
2022/03/18 01:40:00;;;;;;;10.27;6.93;;;;;;;0.96;87.26;103096.38;5010434;28;20222;-68
2022/03/18 01:42:27;;;;;;;11.80;7.60;;;;;;;0.95;87.11;103097.25;4997441;28;20210;-67
2022/03/18 01:44:55;;;;;;;17.77;7.73;;;;;;;0.92;87.35;103110.31;5023317;28;20257;-68
2022/03/18 01:47:22;;;;;;;15.07;7.23;;;;;;;0.88;87.18;103108.53;5010515;28;20685;-68
2022/03/18 01:49:49;;;;;;;11.07;7.67;;;;;;;0.86;87.45;103103.25;5009848;28;20203;-67
2022/03/18 01:52:15;;;;;;;11.43;7.97;;;;;;;0.86;87.64;103107.59;5007923;28;21689;-67
2022/03/18 01:54:51;;;;;;;14.23;7.50;;;;;;;0.83;87.66;103108.44;5000384;28;20234;-68
2022/03/18 01:57:20;;;;;;;17.63;8.37;;;;;;;0.81;87.48;103115.41;5010372;28;20321;-68
2022/03/18 01:59:47;;;;;;;16.83;7.70;;;;;;;0.78;87.50;103114.47;5009152;28;20250;-67
2022/03/18 02:02:16;;;;;;;11.17;7.43;;;;;;;0.76;87.46;103121.41;5023946;28;20236;-67
2022/03/18 02:04:43;;;;;;;10.53;7.60;;;;;;;0.75;87.31;103127.50;5010396;28;20587;-67
2022/03/18 02:07:09;;;;;;;26.20;10.10;;;;;;;0.75;87.57;103124.91;5001983;28;20203;-68
2022/03/18 02:09:37;;;;;;;13.97;7.33;;;;;;;0.72;87.69;103130.97;5005103;28;20199;-67
2022/03/18 02:12:06;;;;;;;14.70;7.17;;;;;;;0.70;87.86;103124.84;5001063;28;20220;-67
2022/03/18 02:14:35;;;;;;;10.00;6.77;;;;;;;0.69;87.93;103121.34;5009797;28;20250;-68
2022/03/18 02:17:04;;;;;;;14.00;7.20;;;;;;;0.68;87.85;103126.56;5008561;28;20611;-67
2022/03/18 02:19:32;;;;;;;15.27;6.80;;;;;;;0.67;87.82;103141.41;5004615;28;20673;-68
2022/03/18 02:21:59;;;;;;;14.40;8.03;;;;;;;0.67;87.82;103135.28;4997698;28;20309;-68
2022/03/18 02:24:27;;;;;;;11.50;7.50;;;;;;;0.65;88.06;103140.50;4990261;28;20231;-67
2022/03/18 02:26:55;;;;;;;11.03;7.20;;;;;;;0.64;87.96;103146.59;4998605;28;20199;-68
2022/03/18 02:29:24;;;;;;;11.93;7.03;;;;;;;0.63;87.66;103152.69;5009638;28;20206;-67
2022/03/18 02:31:51;;;;;;;13.17;7.70;;;;;;;0.62;88.08;103153.53;5009264;28;20673;-68
2022/03/18 02:34:18;;;;;;;14.53;7.17;;;;;;;0.61;88.02;103159.66;5009869;28;20261;-67
2022/03/18 02:36:44;;;;;;;17.60;7.70;;;;;;;0.60;87.97;103155.25;5004298;28;20210;-69
2022/03/18 02:39:11;;;;;;;11.93;7.47;;;;;;;0.58;88.14;103153.47;4997377;28;20229;-68
2022/03/18 02:41:39;;;;;;;12.40;7.63;;;;;;;0.56;88.14;103161.28;5008263;28;20207;-67
2022/03/18 02:44:05;;;;;;;16.20;7.37;;;;;;;0.54;87.93;103163.00;4994518;28;20247;-68
2022/03/18 02:46:32;;;;;;;14.67;7.43;;;;;;;0.51;87.81;103162.97;5009531;28;20562;-66
2022/03/18 02:49:01;;;;;;;10.77;7.47;;;;;;;0.48;87.90;103172.50;5009715;28;20552;-68
2022/03/18 02:51:27;;;;;;;13.13;7.27;;;;;;;0.42;87.88;103170.66;5009885;28;20257;-68
2022/03/18 02:53:55;;;;;;;15.67;6.83;;;;;;;0.35;87.66;103171.41;4990685;28;20689;-68
2022/03/18 02:56:21;;;;;;;12.93;7.00;;;;;;;0.33;87.68;103183.59;5001544;28;20198;-67
2022/03/18 02:58:50;;;;;;;9.23;6.57;;;;;;;0.28;87.58;103186.13;5007431;28;20227;-68
2022/03/18 03:01:17;;;;;;;17.80;6.80;;;;;;;0.26;87.91;103194.81;5011585;28;20215;-67
2022/03/18 03:03:43;;;;;;;14.87;7.57;;;;;;;0.25;87.63;103196.53;5013405;28;20214;-68
2022/03/18 03:08:54;;;;;;;13.67;7.50;;;;;;;0.23;87.98;103200.88;4989775;28;20265;-68
2022/03/18 03:11:22;;;;;;;11.27;7.23;;;;;;;0.22;88.03;103211.31;4989987;28;20707;-67
2022/03/18 03:13:50;;;;;;;10.80;6.47;;;;;;;0.23;88.31;103220.94;5005821;28;20298;-68
2022/03/18 03:16:18;;;;;;;14.10;6.90;;;;;;;0.21;88.04;103205.19;5009151;28;20211;-68
2022/03/18 03:18:45;;;;;;;12.90;7.13;;;;;;;0.20;88.11;103210.41;4992222;28;20227;-68
2022/03/18 03:21:11;;;;;;;14.23;8.03;;;;;;;0.20;88.29;103213.03;5007127;28;20211;-68
2022/03/18 03:23:38;;;;;;;12.60;7.30;;;;;;;0.19;88.24;103219.09;5007041;28;20583;-68
2022/03/18 03:26:04;;;;;;;18.90;7.93;;;;;;;0.19;88.14;103221.72;5004540;28;20213;-68
2022/03/18 03:28:31;;;;;;;12.57;7.00;;;;;;;0.18;88.28;103222.63;5008304;28;20215;-68
2022/03/18 03:31:00;;;;;;;15.33;7.40;;;;;;;0.17;88.41;103228.72;5009180;28;20207;-68
2022/03/18 03:33:27;;;;;;;12.57;7.47;;;;;;;0.17;88.49;103234.84;5008017;28;20801;-68
2022/03/18 03:35:54;;;;;;;15.30;7.17;;;;;;;0.17;88.77;103240.06;5008917;28;20229;-68
2022/03/18 03:38:21;;;;;;;12.13;7.57;;;;;;;0.16;88.79;103229.56;5000606;28;20195;-68
2022/03/18 03:40:48;;;;;;;10.53;6.80;;;;;;;0.14;88.52;103237.38;5005406;28;20210;-68
2022/03/18 03:43:15;;;;;;;15.63;7.80;;;;;;;0.14;88.90;103237.38;5008389;28;20370;-68
2022/03/18 03:45:41;;;;;;;15.63;7.57;;;;;;;0.14;88.92;103245.25;5008778;28;20723;-68
2022/03/18 03:48:10;;;;;;;12.57;7.40;;;;;;;0.14;88.93;103239.13;4990423;28;20203;-68
2022/03/18 03:50:40;;;;;;;15.77;7.83;;;;;;;0.12;88.99;103246.06;5006206;28;20214;-68
2022/03/18 03:53:07;;;;;;;13.03;8.03;;;;;;;0.11;89.01;103258.28;5024124;28;20205;-68
2022/03/18 03:55:38;;;;;;;12.23;7.43;;;;;;;0.09;89.10;103264.34;5008622;28;20314;-67
2022/03/18 03:58:05;;;;;;;14.13;7.70;;;;;;;0.09;89.11;103269.56;5008972;28;20416;-68
2022/03/18 04:00:31;;;;;;;12.53;6.70;;;;;;;0.08;89.16;103280.91;5007705;28;20599;-68
2022/03/18 04:02:58;;;;;;;12.53;7.17;;;;;;;0.05;88.94;103276.47;5009035;28;20715;-68
2022/03/18 04:05:26;;;;;;;8.27;6.77;;;;;;;0.03;89.31;103288.66;5007684;28;20234;-68
2022/03/18 04:07:53;;;;;;;13.23;7.30;;;;;;;0.00;89.05;103288.63;5008786;28;20233;-68
2022/03/18 04:10:20;;;;;;;12.40;7.27;;;;;;;-0.02;89.32;103299.06;4997180;28;20203;-67
2022/03/18 04:12:46;;;;;;;13.10;6.97;;;;;;;-0.05;89.17;103298.97;4997451;28;20597;-68
2022/03/18 04:15:13;;;;;;;14.83;7.33;;;;;;;-0.06;89.18;103296.31;5007635;28;20238;-68
2022/03/18 04:17:40;;;;;;;10.80;7.53;;;;;;;-0.08;89.51;103306.75;5008117;28;20220;-68
2022/03/18 04:20:09;;;;;;;15.70;7.57;;;;;;;-0.09;89.30;103307.63;5000564;28;20732;-68
2022/03/18 04:22:38;;;;;;;12.20;7.20;;;;;;;-0.12;89.20;103307.53;4988801;28;20213;-68
2022/03/18 04:25:06;;;;;;;14.33;7.30;;;;;;;-0.13;89.30;103310.13;4988567;28;20220;-68
2022/03/18 04:27:32;;;;;;;10.33;7.93;;;;;;;-0.16;89.07;103313.53;4988564;28;20212;-68
2022/03/18 04:29:59;;;;;;;14.10;6.73;;;;;;;-0.19;89.18;103313.50;4996825;28;20204;-68
2022/03/18 04:32:26;;;;;;;9.87;7.03;;;;;;;-0.20;89.17;103319.59;5001113;28;20214;-68
2022/03/18 04:34:52;;;;;;;13.13;8.03;;;;;;;-0.22;89.25;103323.91;5002693;28;20234;-68
2022/03/18 04:37:18;;;;;;;14.07;8.00;;;;;;;-0.23;89.32;103322.13;4997093;28;20214;-68
2022/03/18 04:39:46;;;;;;;14.33;7.57;;;;;;;-0.25;89.02;103326.44;5002600;28;21688;-68
2022/03/18 04:42:13;;;;;;;12.97;7.47;;;;;;;-0.26;89.44;103329.91;5006623;28;20207;-68
2022/03/18 04:44:40;;;;;;;13.40;7.77;;;;;;;-0.28;89.03;103334.22;5008132;28;20420;-68
2022/03/18 04:47:06;;;;;;;14.80;7.37;;;;;;;-0.31;89.26;103341.09;5006051;28;20211;-68
2022/03/18 04:49:33;;;;;;;13.90;7.23;;;;;;;-0.33;89.04;103334.94;5006057;28;20214;-68
2022/03/18 04:51:59;;;;;;;16.13;7.17;;;;;;;-0.38;89.11;103322.66;5005637;28;20210;-68
2022/03/18 04:54:26;;;;;;;13.80;7.43;;;;;;;-0.39;89.13;103325.22;5006594;28;20230;-68
2022/03/18 04:59:40;;;;;;;12.37;6.83;;;;;;;-0.46;88.89;103334.66;5007966;28;20345;-68
2022/03/18 05:02:07;;;;;;;11.10;6.33;;;;;;;-0.49;88.88;103333.69;5027128;28;20211;-68
2022/03/18 05:04:33;;;;;;;16.73;6.83;;;;;;;-0.51;89.12;103330.16;5027413;28;20225;-68
2022/03/18 05:07:00;;;;;;;12.60;6.73;;;;;;;-0.53;88.92;103329.22;5018085;28;20203;-68
2022/03/18 05:09:26;;;;;;;11.60;7.20;;;;;;;-0.54;88.76;103337.94;4996241;28;20682;-68
2022/03/18 05:11:54;;;;;;;17.20;7.27;;;;;;;-0.56;88.98;103347.50;4987972;28;20219;-68
2022/03/18 05:14:20;;;;;;;11.07;7.47;;;;;;;-0.58;88.84;103351.78;4989153;28;20236;-68
2022/03/18 05:16:47;;;;;;;15.60;7.60;;;;;;;-0.59;89.32;103353.53;4997179;28;20206;-67
2022/03/18 05:19:13;;;;;;;13.43;7.13;;;;;;;-0.60;89.13;103356.09;5000826;28;20235;-67
2022/03/18 05:21:41;;;;;;;13.37;7.77;;;;;;;-0.61;89.14;103359.56;4988334;28;20323;-67
2022/03/18 05:24:07;;;;;;;9.97;6.73;;;;;;;-0.61;89.31;103360.44;4987706;28;20263;-67
2022/03/18 05:26:34;;;;;;;12.97;6.60;;;;;;;-0.62;89.26;103369.16;4987603;28;20211;-67
2022/03/18 05:29:02;;;;;;;13.40;8.77;;;;;;;-0.63;89.35;103369.09;5004174;28;20204;-66
2022/03/18 05:31:31;;;;;;;15.83;9.53;;;;;;;-0.66;89.11;103377.75;4987140;28;20210;-68
2022/03/18 05:33:58;;;;;;;12.67;8.30;;;;;;;-0.68;89.64;103379.44;4999807;28;20318;-67
2022/03/18 05:36:25;;;;;;;18.33;8.10;;;;;;;-0.72;89.43;103383.69;5006115;28;20214;-68
2022/03/18 05:38:51;;;;;;;14.53;7.30;;;;;;;-0.74;89.23;103395.00;5006155;28;20215;-67
2022/03/18 05:41:18;;;;;;;16.53;7.87;;;;;;;-0.77;89.39;103389.69;4987522;28;20224;-68
2022/03/18 05:43:44;;;;;;;13.10;7.30;;;;;;;-0.80;89.54;103385.25;4987193;28;20379;-68
2022/03/18 05:46:12;;;;;;;13.80;7.27;;;;;;;-0.85;89.11;103392.06;4986938;28;20635;-67
2022/03/18 05:48:39;;;;;;;15.43;7.23;;;;;;;-0.87;89.57;103392.88;4987152;28;20208;-67
2022/03/18 05:51:06;;;;;;;11.80;6.97;;;;;;;-0.91;89.41;103405.00;5000987;28;20207;-68
2022/03/18 05:53:32;;;;;;;9.07;7.27;;;;;;;-0.93;89.83;103390.09;5006885;28;20240;-67
2022/03/18 05:58:54;;;;;;;14.40;7.97;;;;;;;-0.95;89.79;103405.75;4949050;29;20239;-67
2022/03/18 06:01:23;;;;;;;14.73;7.40;;;;;;;-0.97;89.50;103407.44;4992477;28;20712;-67
2022/03/18 06:03:50;;;;;;;14.23;7.83;;;;;;;-0.96;89.83;103409.22;5010917;28;20203;-67
2022/03/18 06:06:17;;;;;;;10.30;7.97;;;;;;;-0.97;89.88;103412.69;5010134;28;20500;-67
2022/03/18 06:14:11;;;;;;;12.13;7.90;;;;;;;-0.97;89.79;103424.88;4990311;28;20242;-68
2022/03/18 06:16:39;;;;;;;14.00;8.23;;;;;;;-0.98;89.84;103430.94;4990132;28;20211;-68
2022/03/18 06:19:05;;;;;;;14.60;8.73;;;;;;;-0.96;89.61;103431.88;4991158;28;20196;-67
2022/03/18 06:21:32;;;;;;;18.13;8.00;;;;;;;-0.97;89.98;103433.59;4998662;28;20700;-66
2022/03/18 06:23:58;;;;;;;16.00;7.97;;;;;;;-0.95;90.06;103431.91;5010340;28;20237;-67
2022/03/18 06:26:25;;;;;;;12.83;7.97;;;;;;;-0.94;90.40;103448.50;5009990;28;20563;-67
2022/03/18 06:28:51;;;;;;;13.40;7.87;;;;;;;-0.93;89.99;103459.00;5008933;28;20688;-67
2022/03/18 06:31:18;;;;;;;12.40;7.57;;;;;;;-0.93;90.63;103455.50;5006157;28;20279;-67
2022/03/18 06:33:46;;;;;;;14.27;8.23;;;;;;;-0.92;90.24;103455.56;5001059;28;20751;-67
2022/03/18 06:36:13;;;;;;;12.33;8.40;;;;;;;-0.91;90.23;103462.56;5009353;28;20203;-67
2022/03/18 06:38:40;;;;;;;12.87;8.33;;;;;;;-0.91;90.44;103470.41;5024194;28;20206;-68
2022/03/18 06:41:06;;;;;;;15.70;8.73;;;;;;;-0.90;90.70;103468.69;5012095;28;20223;-67
2022/03/18 06:43:33;;;;;;;20.40;9.57;;;;;;;-0.88;90.58;103466.97;4993381;28;20203;-67
2022/03/18 06:45:59;;;;;;;13.17;9.80;;;;;;;-0.87;90.66;103464.41;5009921;28;20230;-67
2022/03/18 06:48:26;;;;;;;20.10;10.50;;;;;;;-0.85;90.61;103480.16;5007982;28;20584;-67
2022/03/18 06:50:54;;;;;;;18.77;11.40;;;;;;;-0.82;90.78;103488.09;5020788;28;20209;-67
2022/03/18 06:53:21;;;;;;;19.80;11.80;;;;;;;-0.80;90.82;103492.53;5013834;28;20202;-68
2022/03/18 06:55:47;;;;;;;17.50;11.63;;;;;;;-0.76;91.20;103489.16;5010040;28;20238;-67
2022/03/18 06:58:14;;;;;;;24.33;12.10;;;;;;;-0.72;91.05;103490.16;5008385;28;20207;-67
2022/03/18 07:00:40;;;;;;;17.07;10.77;;;;;;;-0.66;91.55;103476.31;5005484;28;20226;-67
2022/03/18 07:03:07;;;;;;;17.37;12.17;;;;;;;-0.63;91.55;103482.53;4997914;28;20199;-67
2022/03/18 07:05:34;;;;;;;19.10;11.50;;;;;;;-0.58;91.85;103495.75;5007484;28;20233;-67
2022/03/18 07:08:02;;;;;;;22.90;13.33;;;;;;;-0.53;91.83;103501.97;5020070;28;20604;-67
2022/03/18 07:10:28;;;;;;;20.10;12.97;;;;;;;-0.49;91.93;103506.47;5011470;28;20556;-67
2022/03/18 07:12:55;;;;;;;23.27;13.27;;;;;;;-0.44;92.09;103507.50;5017841;28;20206;-67
2022/03/18 07:15:22;;;;;;;19.03;13.67;;;;;;;-0.39;92.45;103511.13;4997952;28;20285;-67
2022/03/18 07:17:59;;;;;;;26.00;14.37;;;;;;;-0.35;92.76;103518.19;4998382;28;20658;-67
2022/03/18 07:20:26;;;;;;;24.13;13.23;;;;;;;-0.29;92.53;103521.00;5000395;28;20273;-67
2022/03/18 07:23:06;;;;;;;27.23;14.50;;;;;;;-0.22;93.08;103515.09;4998057;28;20203;-68
2022/03/18 07:25:33;;;;;;;25.40;14.90;;;;;;;-0.16;93.28;103523.09;4997411;28;20250;-67
2022/03/18 07:27:59;;;;;;;36.43;17.27;;;;;;;-0.10;93.92;103525.88;5003839;28;20207;-67
2022/03/18 07:30:27;;;;;;;31.70;17.60;;;;;;;-0.01;94.10;103526.16;4997464;28;20212;-68
2022/03/18 07:32:53;;;;;;;32.80;17.80;;;;;;;0.10;94.36;103515.03;5002974;28;20676;-67
2022/03/18 07:35:20;;;;;;;38.30;17.17;;;;;;;0.19;94.66;103516.13;4995724;28;20300;-67
2022/03/18 07:37:48;;;;;;;27.47;17.80;;;;;;;0.30;95.02;103524.28;4998017;28;20211;-67
2022/03/18 07:40:16;;;;;;;35.97;16.93;;;;;;;0.41;95.24;103522.81;4997160;28;20743;-67
2022/03/18 07:42:44;;;;;;;34.47;17.43;;;;;;;0.52;95.83;103526.59;4996547;28;20215;-67
2022/03/18 07:45:12;;;;;;;32.60;17.57;;;;;;;0.65;96.26;103530.38;4992426;28;20318;-67
2022/03/18 07:47:39;;;;;;;34.20;17.10;;;;;;;0.81;96.70;103529.00;5001451;28;20210;-67
2022/03/18 07:50:07;;;;;;;32.97;17.03;;;;;;;0.97;96.95;103536.34;4998804;28;20214;-67
2022/03/18 07:52:33;;;;;;;32.30;18.60;;;;;;;1.14;97.96;103528.84;4997456;28;20207;-66
2022/03/18 07:55:00;;;;;;;32.30;19.53;;;;;;;1.30;97.92;103530.94;5002292;28;20227;-67
2022/03/18 07:57:28;;;;;;;30.00;17.83;;;;;;;1.48;98.39;103523.44;4989116;28;20217;-67
2022/03/18 07:59:57;;;;;;;25.27;17.63;;;;;;;1.65;98.46;103529.03;4987965;28;20215;-67
2022/03/18 08:02:23;;;;;;;30.10;19.67;;;;;;;1.84;99.58;103517.13;4992312;28;20789;-67
2022/03/18 08:04:52;;;;;;;34.17;19.07;;;;;;;2.06;99.88;103522.78;4998072;28;20229;-67
2022/03/18 08:07:20;;;;;;;26.50;16.83;;;;;;;2.27;100.00;103532.81;4999599;28;20237;-67
2022/03/18 08:09:46;;;;;;;30.10;17.37;;;;;;;2.49;99.89;103526.16;4997402;28;20578;-66
2022/03/18 08:12:14;;;;;;;27.97;16.47;;;;;;;2.71;100.00;103524.72;4998506;28;20266;-66
2022/03/18 08:14:43;;;;;;;27.53;15.97;;;;;;;2.93;100.00;103536.44;4996607;28;20939;-68
2022/03/18 08:17:09;;;;;;;33.97;16.20;;;;;;;3.15;100.00;103538.53;4996150;28;20206;-66
2022/03/18 08:19:36;;;;;;;22.23;13.20;;;;;;;3.39;100.00;103545.88;4995276;28;20207;-67
2022/03/18 08:22:04;;;;;;;16.20;12.93;;;;;;;3.59;100.00;103546.97;4999943;28;20237;-68
2022/03/18 08:24:31;;;;;;;25.47;13.47;;;;;;;3.80;100.00;103559.50;4997701;28;20235;-68
2022/03/18 08:26:58;;;;;;;18.23;12.00;;;;;;;3.99;100.00;103547.41;4996170;28;20207;-68
2022/03/18 08:29:24;;;;;;;14.43;10.27;;;;;;;4.20;100.00;103550.25;4995772;28;20687;-67
2022/03/18 08:31:52;;;;;;;19.43;9.33;;;;;;;4.38;100.00;103552.19;4988536;28;20210;-67
2022/03/18 08:34:20;;;;;;;19.50;9.10;;;;;;;4.57;100.00;103543.53;4992479;28;20232;-68
2022/03/18 08:36:47;;;;;;;14.00;7.67;;;;;;;4.81;100.00;103538.44;4997685;28;20298;-67
2022/03/18 08:39:13;;;;;;;15.03;8.00;;;;;;;5.00;99.97;103538.56;4997841;28;20203;-68
2022/03/18 08:41:40;;;;;;;12.60;8.33;;;;;;;5.20;99.67;103539.53;4997820;28;20244;-67
2022/03/18 08:44:06;;;;;;;14.67;8.23;;;;;;;5.41;99.01;103542.25;4992481;28;20239;-67
2022/03/18 08:46:34;;;;;;;16.53;6.87;;;;;;;5.57;97.97;103543.19;4996822;28;20684;-68
2022/03/18 08:49:02;;;;;;;15.53;6.67;;;;;;;5.69;96.92;103545.03;4998794;28;20268;-67
2022/03/18 08:51:29;;;;;;;13.57;6.50;;;;;;;5.83;95.81;103540.66;4992780;28;20211;-68
2022/03/18 08:53:56;;;;;;;16.30;7.07;;;;;;;6.00;95.12;103549.53;4992527;28;20218;-68
2022/03/18 08:56:22;;;;;;;10.57;4.37;;;;;;;6.16;94.74;103556.63;5001370;28;20210;-68
2022/03/18 08:58:50;;;;;;;9.40;4.17;;;;;;;6.31;93.59;103560.16;4991501;28;20226;-68
2022/03/18 09:01:16;;;;;;;12.70;4.33;;;;;;;6.43;92.41;103565.47;4989446;28;20231;-68
2022/03/18 09:03:43;;;;;;;14.27;4.63;;;;;;;6.55;91.08;103574.28;4989941;28;20692;-67
2022/03/18 09:06:12;;;;;;;11.00;5.03;;;;;;;6.68;90.04;103577.81;4994323;28;20330;-69
2022/03/18 09:08:38;;;;;;;9.80;3.70;;;;;;;6.82;88.64;103585.72;4991805;28;20211;-68
2022/03/18 09:11:06;;;;;;;8.53;3.37;;;;;;;6.94;86.85;103580.44;4992877;28;20251;-68
2022/03/18 09:13:33;;;;;;;7.60;2.03;;;;;;;7.09;86.10;103588.34;4988908;28;20244;-68
2022/03/18 09:15:59;;;;;;;8.43;3.20;;;;;;;7.23;84.12;103590.97;4986747;28;20239;-68
2022/03/18 09:18:26;;;;;;;10.87;3.93;;;;;;;7.36;82.15;103591.81;4993920;28;20212;-67
2022/03/18 09:20:52;;;;;;;10.13;3.97;;;;;;;7.50;81.71;103601.50;4995556;28;20227;-67
2022/03/18 09:23:20;;;;;;;15.83;4.70;;;;;;;7.66;79.24;103599.66;4995081;28;20207;-68
2022/03/18 09:25:47;;;;;;;8.07;3.53;;;;;;;7.79;79.34;103593.41;4994524;28;20231;-69
2022/03/18 09:28:13;;;;;;;9.87;2.40;;;;;;;7.94;78.77;103595.97;4997733;28;20213;-68
2022/03/18 09:30:41;;;;;;;11.00;2.20;;;;;;;8.03;76.57;103595.06;5000402;28;20206;-69
2022/03/18 09:33:08;;;;;;;7.60;2.60;;;;;;;8.08;74.55;103603.84;4998950;28;21464;-70
2022/03/18 09:35:35;;;;;;;9.23;2.50;;;;;;;8.14;73.58;103608.25;5002259;28;20227;-68
2022/03/18 09:38:01;;;;;;;9.27;3.17;;;;;;;8.24;72.97;103609.97;5003480;28;20207;-68
2022/03/18 09:40:29;;;;;;;7.00;3.00;;;;;;;8.34;71.75;103617.91;5002561;28;20216;-69
2022/03/18 09:42:58;;;;;;;10.07;3.30;;;;;;;8.46;71.72;103614.25;5009952;28;20210;-70
2022/03/18 09:45:25;;;;;;;6.60;3.10;;;;;;;8.52;70.23;103608.91;5000400;28;20253;-68
2022/03/18 09:47:52;;;;;;;11.07;3.43;;;;;;;8.62;69.93;103612.34;4996401;28;20218;-68
2022/03/18 09:50:20;;;;;;;10.00;3.10;;;;;;;8.76;69.50;103625.56;4999399;28;20199;-69
2022/03/18 09:52:47;;;;;;;11.50;3.33;;;;;;;8.90;69.84;103628.97;5006650;28;20211;-67
2022/03/18 09:55:14;;;;;;;8.30;3.10;;;;;;;8.99;68.39;103632.41;5001457;28;20695;-68
2022/03/18 09:57:41;;;;;;;5.87;3.10;;;;;;;9.09;68.13;103638.53;5003784;28;20211;-68
2022/03/18 10:00:09;;;;;;;7.67;3.23;;;;;;;9.21;67.41;103640.19;5002126;28;20226;-69
2022/03/18 10:02:36;;;;;;;8.43;3.67;;;;;;;9.27;67.48;103630.38;5001132;28;20227;-69
2022/03/18 10:05:06;;;;;;;8.40;3.53;;;;;;;9.37;67.30;103642.66;5000999;28;20238;-69
2022/03/18 10:07:33;;;;;;;9.27;3.93;;;;;;;9.47;66.69;103639.91;4996776;28;20211;-69
2022/03/18 10:10:14;;;;;;;6.03;2.67;;;;;;;9.58;66.90;103649.53;5004161;28;20225;-69
2022/03/18 10:12:44;;;;;;;6.73;2.83;;;;;;;9.65;66.09;103653.91;5004183;28;20227;-68
2022/03/18 10:15:14;;;;;;;8.17;3.20;;;;;;;9.68;64.78;103651.19;5003456;28;20709;-68
2022/03/18 10:17:43;;;;;;;12.00;3.23;;;;;;;9.65;64.08;103656.56;4999907;28;20207;-69
2022/03/18 10:20:24;;;;;;;9.97;3.80;;;;;;;9.69;64.86;103658.25;5001752;28;20214;-68
2022/03/18 10:22:50;;;;;;;8.10;3.70;;;;;;;9.76;65.13;103661.75;5002046;28;20264;-69
2022/03/18 10:25:42;;;;;;;8.33;3.03;;;;;;;9.83;64.69;103657.25;4995375;28;20246;-68
2022/03/18 10:28:11;;;;;;;7.70;3.40;;;;;;;9.82;64.76;103658.13;5000762;28;20238;-68
2022/03/18 10:30:38;;;;;;;8.47;2.73;;;;;;;9.90;64.84;103658.91;4991726;28;20215;-69
2022/03/18 10:33:06;;;;;;;8.33;3.17;;;;;;;9.92;63.50;103659.75;4999751;28;20585;-68
2022/03/18 10:38:33;;;;;;;11.67;3.10;;;;;;;10.06;63.82;103655.13;5001245;28;20301;-68
2022/03/18 10:41:01;;;;;;;13.83;4.43;;;;;;;10.12;63.87;103655.06;5008131;28;20230;-69
2022/03/18 10:43:29;;;;;;;6.30;2.67;;;;;;;10.20;63.62;103666.53;5005145;28;20214;-69
2022/03/18 10:46:03;;;;;;;11.23;2.93;;;;;;;10.27;63.07;103664.66;5001962;28;20235;-69
2022/03/18 10:48:31;;;;;;;9.40;2.97;;;;;;;10.32;62.97;103661.03;4996285;28;20203;-69
2022/03/18 10:51:07;;;;;;;9.23;2.90;;;;;;;10.41;63.08;103674.19;4991194;28;20207;-70
2022/03/18 10:53:36;;;;;;;9.40;3.53;;;;;;;10.48;62.94;103671.47;4995818;28;20207;-69
2022/03/18 10:56:04;;;;;;;5.33;2.70;;;;;;;10.56;62.68;103666.91;5002368;28;20717;-68
2022/03/18 10:58:33;;;;;;;8.30;3.50;;;;;;;10.60;61.82;103668.59;4995474;28;20201;-70
2022/03/18 11:01:02;;;;;;;9.27;3.27;;;;;;;10.62;61.85;103669.47;4990959;28;20240;-70
2022/03/18 11:03:29;;;;;;;8.90;3.13;;;;;;;10.64;61.40;103657.00;4996155;28;20217;-70
2022/03/18 11:05:58;;;;;;;5.80;2.63;;;;;;;10.66;61.36;103657.84;4994272;28;20239;-68
2022/03/18 11:08:35;;;;;;;8.20;3.20;;;;;;;10.72;61.78;103663.09;4998343;28;20290;-68
2022/03/18 11:11:10;;;;;;;9.37;2.87;;;;;;;10.81;61.67;103668.25;4997345;28;20214;-69
2022/03/18 11:13:43;;;;;;;7.83;3.53;;;;;;;10.89;60.91;103661.03;4996051;28;20215;-68
2022/03/18 11:16:11;;;;;;;7.13;2.87;;;;;;;10.93;60.64;103678.72;5025686;22;20660;-70
2022/03/18 11:18:38;;;;;;;9.07;3.00;;;;;;;10.95;60.47;103668.91;5013127;28;20779;-70
2022/03/18 11:21:06;;;;;;;11.10;3.13;;;;;;;10.98;60.25;103668.84;5020416;28;20235;-72
2022/03/18 11:23:34;;;;;;;6.97;2.93;;;;;;;11.01;60.42;103658.16;5025231;28;20210;-72
2022/03/18 11:26:01;;;;;;;11.60;3.33;;;;;;;11.02;60.55;103661.69;5018912;28;20231;-70
2022/03/18 11:28:28;;;;;;;9.23;3.80;;;;;;;11.06;61.02;103655.41;5014543;28;20662;-71
2022/03/18 11:31:04;;;;;;;8.33;3.13;;;;;;;11.16;60.89;103661.44;5024040;28;20211;-70
2022/03/18 11:33:30;;;;;;;9.27;3.40;;;;;;;11.22;60.67;103664.00;5020215;28;20492;-69
2022/03/18 11:36:18;;;;;;;10.53;3.37;;;;;;;11.27;60.64;103648.81;5017654;28;20231;-70
2022/03/18 11:38:53;;;;;;;5.90;3.60;;;;;;;11.32;60.63;103649.56;5021024;28;20791;-70
2022/03/18 11:41:20;;;;;;;9.43;3.57;;;;;;;11.36;60.36;103651.28;5009342;28;20439;-70
2022/03/18 11:43:51;;;;;;;8.50;3.30;;;;;;;11.40;59.98;103640.53;5013325;28;20212;-72
2022/03/18 11:46:25;;;;;;;8.17;3.27;;;;;;;11.43;59.72;103642.25;5024410;28;20226;-73